KPMD/PMD METAR and TAF weather

Enter ICAO airport designator
Station Type Date Time Source
KPMD METAR 2022/01/25 04:53 UTC NOAA

KPMD 250453Z 10003G21KT 10SM CLR 06/M04 A3003 RMK AO2 SLP170 T00611044


Station Type Date Time Source
KPMD Decoded METAR 2022/01/25 04:53 UTC NOAA

PALMDALE PROD FLIGHT PLANT, CA, United States (KPMD) 34-38N 118-05W 780M
Jan 24, 2022 - 11:53 PM EST / 2022.01.25 0453 UTC
Wind: from the E (100 degrees) at 3 MPH (3 KT) gusting to 24 MPH (21 KT):0
Visibility: 10 mile(s):0
Sky conditions: clear
Temperature: 43.0 F (6.1 C)
Dew Point: 24.1 F (-4.4 C)
Relative Humidity: 46%
Pressure (altimeter): 30.03 in. Hg (1016 hPa)
ob: KPMD 250453Z 10003G21KT 10SM CLR 06/M04 A3003 RMK AO2 SLP170 T00611044
cycle: 5

Station Type Date Time Source
KPMD TAF 2022/01/24 18:33 UTC NOAA

TAF KPMD 241731Z 2418/2518 00000KT P6SM SKC
FM242100 27008KT P6SM SKC
FM250300 21006KT P6SM SKC

Example: see airport list